Time;durP1;ratioP1;P1;durP2;ratioP2;P2;SDS_P1;SDS_P2;PMS_P1;PMS_P2;Temp;Humidity;BMP_temperature;BMP_pressure;BME280_temperature;BME280_humidity;BME280_pressure;Samples;Min_cycle;Max_cycle;Signal;HPM_P1;HPM_P2
2021/05/13 00:01:05;;;;;;;22.73;11.80;;;12.20;90.70;;;;;;5061027;28;20025;-71
2021/05/13 00:03:31;;;;;;;19.55;11.10;;;12.20;90.70;;;;;;5057804;28;20017;-70
2021/05/13 00:05:57;;;;;;;21.92;12.90;;;12.20;90.80;;;;;;5064207;28;20506;-70
2021/05/13 00:08:22;;;;;;;22.02;12.45;;;12.20;90.70;;;;;;5061406;28;20043;-70
2021/05/13 00:10:48;;;;;;;24.80;13.18;;;12.20;90.80;;;;;;5059196;28;20075;-70
2021/05/13 00:13:14;;;;;;;24.95;13.10;;;12.20;90.70;;;;;;5061456;28;20021;-70
2021/05/13 00:15:41;;;;;;;25.27;13.95;;;12.20;90.70;;;;;;5061322;28;20032;-69
2021/05/13 00:18:08;;;;;;;26.88;14.65;;;12.20;90.60;;;;;;5062079;28;20094;-70
2021/05/13 00:20:41;;;;;;;26.60;14.27;;;12.20;90.70;;;;;;5063501;28;20085;-70
2021/05/13 00:23:07;;;;;;;20.67;12.23;;;12.10;90.70;;;;;;5062992;28;20028;-70
2021/05/13 00:25:33;;;;;;;29.58;14.10;;;12.10;90.80;;;;;;5062950;28;20085;-70
2021/05/13 00:27:59;;;;;;;23.67;12.75;;;12.10;90.80;;;;;;5062786;28;20060;-70
2021/05/13 00:30:25;;;;;;;29.10;14.82;;;12.10;90.80;;;;;;5046457;28;20032;-70
2021/05/13 00:32:51;;;;;;;25.77;14.13;;;12.10;90.80;;;;;;5061037;28;20288;-70
2021/05/13 00:35:18;;;;;;;29.42;15.32;;;12.10;90.80;;;;;;5065356;28;20043;-70
2021/05/13 00:37:45;;;;;;;27.50;16.10;;;12.10;90.80;;;;;;5062304;28;20025;-70
2021/05/13 00:40:12;;;;;;;27.08;13.80;;;12.10;90.80;;;;;;5064588;28;20052;-70
2021/05/13 00:42:39;;;;;;;30.33;15.50;;;12.10;90.90;;;;;;5062831;28;20025;-71
2021/05/13 00:45:07;;;;;;;26.85;15.20;;;12.10;90.80;;;;;;5066737;28;20449;-70
2021/05/13 00:47:35;;;;;;;24.70;15.05;;;12.10;90.90;;;;;;5058768;28;20021;-70
2021/05/13 00:50:02;;;;;;;29.52;16.52;;;12.10;90.90;;;;;;5060184;28;20068;-70
2021/05/13 00:52:29;;;;;;;28.75;14.95;;;12.00;91.00;;;;;;5061822;28;20033;-70
2021/05/13 00:54:55;;;;;;;27.48;15.90;;;12.00;91.00;;;;;;5047635;28;20036;-70
2021/05/13 00:57:22;;;;;;;28.52;16.50;;;12.00;91.00;;;;;;5053831;28;20529;-70
2021/05/13 00:59:52;;;;;;;27.73;14.98;;;12.00;91.10;;;;;;5052364;28;20151;-70
2021/05/13 01:02:19;;;;;;;31.08;16.50;;;12.00;91.20;;;;;;5061124;28;20024;-70
2021/05/13 01:04:44;;;;;;;23.83;13.30;;;11.90;91.10;;;;;;5067945;28;20020;-69
2021/05/13 01:07:11;;;;;;;31.13;15.80;;;11.90;91.20;;;;;;5060203;28;20054;-70
2021/05/13 01:09:36;;;;;;;30.98;16.98;;;11.90;91.10;;;;;;5062804;28;20038;-70
2021/05/13 01:12:15;;;;;;;26.88;14.23;;;11.90;91.20;;;;;;5062052;28;20039;-70
2021/05/13 01:14:43;;;;;;;22.02;13.65;;;11.90;91.30;;;;;;5046305;28;20556;-70
2021/05/13 01:19:45;;;;;;;35.80;15.23;;;11.90;91.20;;;;;;5060139;28;20029;-70
2021/05/13 01:22:11;;;;;;;;;;;11.90;91.30;;;;;;5061203;28;20033;-70
2021/05/13 01:24:37;;;;;;;27.73;14.93;;;11.90;91.30;;;;;;5062735;28;19920;-69
2021/05/13 01:27:03;;;;;;;28.40;14.55;;;11.90;91.30;;;;;;5058015;28;20044;-70
2021/05/13 01:29:28;;;;;;;30.85;15.43;;;11.90;91.30;;;;;;5061227;28;20058;-70
2021/05/13 01:31:55;;;;;;;28.08;13.82;;;11.90;91.40;;;;;;5063018;28;20367;-70
2021/05/13 01:34:21;;;;;;;28.48;15.57;;;11.90;91.40;;;;;;5063203;28;20387;-70
2021/05/13 01:36:48;;;;;;;28.20;15.45;;;11.80;91.40;;;;;;5061989;28;20036;-70
2021/05/13 01:39:14;;;;;;;25.92;15.27;;;11.80;91.40;;;;;;5062461;28;20387;-70
2021/05/13 01:41:41;;;;;;;24.27;13.88;;;11.80;91.50;;;;;;5059877;28;20495;-70
2021/05/13 01:44:08;;;;;;;29.52;15.13;;;11.80;91.50;;;;;;5065600;28;20111;-70
2021/05/13 01:46:34;;;;;;;28.85;14.52;;;11.80;91.40;;;;;;5062512;28;20495;-70
2021/05/13 01:49:00;;;;;;;29.02;15.15;;;11.80;91.40;;;;;;5060656;28;20099;-70
2021/05/13 01:51:26;;;;;;;27.80;16.13;;;11.80;91.70;;;;;;5056122;28;20032;-70
2021/05/13 01:53:52;;;;;;;30.08;14.75;;;11.80;91.50;;;;;;5062982;28;20328;-70
2021/05/13 01:56:18;;;;;;;31.90;16.48;;;11.80;91.50;;;;;;5057537;28;20109;-70
2021/05/13 01:58:44;;;;;;;30.75;15.43;;;11.80;91.60;;;;;;5066099;28;20078;-70
2021/05/13 02:01:12;;;;;;;30.10;16.63;;;11.80;91.60;;;;;;5050716;28;20048;-70
2021/05/13 02:03:43;;;;;;;33.80;18.20;;;11.80;91.50;;;;;;5061447;28;20028;-70
2021/05/13 02:06:09;;;;;;;25.67;14.32;;;11.80;91.50;;;;;;5065892;28;20029;-70
2021/05/13 02:08:36;;;;;;;24.35;13.27;;;11.80;91.60;;;;;;5031889;28;20032;-70
2021/05/13 02:11:02;;;;;;;27.55;15.98;;;11.80;91.60;;;;;;5066716;28;20033;-69
2021/05/13 02:13:28;;;;;;;33.22;16.48;;;11.80;91.50;;;;;;5069588;28;20056;-70
2021/05/13 02:15:54;;;;;;;23.75;14.23;;;11.80;91.80;;;;;;5060151;28;20067;-70
2021/05/13 02:18:20;;;;;;;27.08;13.13;;;11.80;91.60;;;;;;5064396;28;20036;-70
2021/05/13 02:20:49;;;;;;;27.17;15.52;;;11.80;91.60;;;;;;5065321;28;20499;-70
2021/05/13 02:23:16;;;;;;;25.75;14.25;;;11.80;91.50;;;;;;5059785;28;20472;-70
2021/05/13 02:25:45;;;;;;;30.95;16.92;;;11.80;91.50;;;;;;5062633;28;20029;-70
2021/05/13 02:28:11;;;;;;;31.70;17.45;;;11.80;91.50;;;;;;5063466;28;20028;-70
2021/05/13 02:30:37;;;;;;;29.92;16.90;;;11.80;91.50;;;;;;5061886;28;20503;-70
2021/05/13 02:33:03;;;;;;;32.90;17.63;;;11.80;91.60;;;;;;5062760;28;20032;-70
2021/05/13 02:35:29;;;;;;;33.65;17.02;;;11.80;91.60;;;;;;5061832;28;20029;-70
2021/05/13 02:37:55;;;;;;;26.95;16.00;;;11.80;91.60;;;;;;5059542;28;20024;-70
2021/05/13 02:40:20;;;;;;;27.65;14.45;;;11.80;91.60;;;;;;5059412;28;20103;-70
2021/05/13 02:42:46;;;;;;;32.17;16.63;;;11.80;91.60;;;;;;5057032;28;20029;-70
2021/05/13 02:45:13;;;;;;;32.80;17.50;;;11.80;91.60;;;;;;5060612;28;20119;-70
2021/05/13 02:47:39;;;;;;;29.73;16.73;;;11.80;91.70;;;;;;5059475;28;20055;-70
2021/05/13 02:50:07;;;;;;;24.30;15.20;;;11.80;91.70;;;;;;5043441;28;20482;-70
2021/05/13 02:52:33;;;;;;;23.73;14.30;;;11.80;91.70;;;;;;5060725;28;20025;-70
2021/05/13 02:54:59;;;;;;;28.15;15.52;;;11.80;91.70;;;;;;5057220;28;20021;-70
2021/05/13 02:57:24;;;;;;;29.50;16.35;;;11.80;91.80;;;;;;5056474;28;20051;-70
2021/05/13 02:59:57;;;;;;;33.95;17.08;;;11.80;91.70;;;;;;5061587;28;20039;-70
2021/05/13 03:02:23;;;;;;;30.48;17.65;;;11.80;91.70;;;;;;5066726;28;20033;-70
2021/05/13 03:04:48;;;;;;;31.42;18.25;;;11.80;91.80;;;;;;5061683;28;20285;-70
2021/05/13 03:07:14;;;;;;;38.97;18.67;;;11.80;91.80;;;;;;5061808;28;20041;-70
2021/05/13 03:09:53;;;;;;;32.67;17.50;;;11.80;91.80;;;;;;5060736;28;20380;-70
2021/05/13 03:12:19;;;;;;;32.47;18.52;;;11.70;91.80;;;;;;5060347;28;20498;-70
2021/05/13 03:14:46;;;;;;;24.40;14.75;;;11.70;91.90;;;;;;5047581;28;20032;-70
2021/05/13 03:17:11;;;;;;;31.02;18.50;;;11.70;91.90;;;;;;5057041;28;20440;-70
2021/05/13 03:19:44;;;;;;;31.67;18.98;;;11.70;91.80;;;;;;5063370;28;20119;-70
2021/05/13 03:22:16;;;;;;;25.92;16.15;;;11.70;91.90;;;;;;5047848;28;20414;-70
2021/05/13 03:27:13;;;;;;;27.10;15.95;;;11.70;91.90;;;;;;5058156;28;20039;-71
2021/05/13 03:29:39;;;;;;;27.90;15.98;;;11.70;91.90;;;;;;5063738;28;20486;-70
2021/05/13 03:32:06;;;;;;;35.72;18.58;;;11.70;91.90;;;;;;5068717;28;20036;-70
2021/05/13 03:34:31;;;;;;;31.00;17.55;;;11.70;91.90;;;;;;5050760;28;20516;-70
2021/05/13 03:36:57;;;;;;;30.58;16.70;;;11.70;91.90;;;;;;5057041;28;20025;-70
2021/05/13 03:39:23;;;;;;;35.10;18.05;;;11.70;92.00;;;;;;5065671;28;20367;-70
2021/05/13 03:41:49;;;;;;;37.67;19.23;;;11.70;92.00;;;;;;5059303;28;20529;-70
2021/05/13 03:44:14;;;;;;;40.05;20.70;;;11.70;92.00;;;;;;5058824;28;20033;-70
2021/05/13 03:46:40;;;;;;;34.60;19.27;;;11.60;92.10;;;;;;5062693;28;20103;-70
2021/05/13 03:49:06;;;;;;;29.63;16.98;;;11.70;92.20;;;;;;5060768;28;20470;-70
2021/05/13 03:51:31;;;;;;;37.20;19.60;;;11.70;92.10;;;;;;5060990;28;20017;-70
2021/05/13 03:53:57;;;;;;;39.80;20.10;;;11.70;92.20;;;;;;5062439;28;20399;-70
2021/05/13 03:56:23;;;;;;;35.22;19.27;;;11.60;92.20;;;;;;5061941;28;20029;-70
2021/05/13 03:58:57;;;;;;;36.55;19.25;;;11.60;92.20;;;;;;5063579;28;20036;-70
2021/05/13 04:04:07;;;;;;;31.80;17.17;;;11.60;92.20;;;;;;5059441;28;20036;-70
2021/05/13 04:06:33;;;;;;;29.08;15.82;;;11.70;92.20;;;;;;5064537;28;20036;-70
2021/05/13 04:08:59;;;;;;;33.17;18.27;;;11.60;92.20;;;;;;5070616;28;20467;-70
2021/05/13 04:11:25;;;;;;;36.67;18.88;;;11.70;92.20;;;;;;5065236;28;20036;-70
2021/05/13 04:13:52;;;;;;;35.00;18.98;;;11.60;92.20;;;;;;5067417;28;20032;-70
2021/05/13 04:16:25;;;;;;;31.65;17.95;;;11.60;92.30;;;;;;5062342;28;20301;-70
2021/05/13 04:18:51;;;;;;;31.40;17.13;;;11.60;92.30;;;;;;5060943;28;20032;-70
2021/05/13 04:21:17;;;;;;;32.40;17.85;;;11.60;92.30;;;;;;5062478;28;20028;-70
2021/05/13 04:23:42;;;;;;;33.75;19.00;;;11.70;92.30;;;;;;5062374;28;20025;-70
2021/05/13 04:26:08;;;;;;;32.58;16.63;;;11.60;92.30;;;;;;5061280;28;20060;-69
2021/05/13 04:28:34;;;;;;;30.35;16.80;;;11.60;92.30;;;;;;5061174;28;20552;-70
2021/05/13 04:30:59;;;;;;;30.15;18.15;;;11.70;92.40;;;;;;5062713;28;20033;-70
2021/05/13 04:33:25;;;;;;;35.38;18.75;;;11.70;92.30;;;;;;5065773;28;20068;-70
2021/05/13 04:35:51;;;;;;;37.33;19.92;;;11.60;92.30;;;;;;5059265;28;20040;-70
2021/05/13 04:38:18;;;;;;;37.25;19.25;;;11.70;92.30;;;;;;5062571;28;20028;-69
2021/05/13 04:40:45;;;;;;;32.88;17.77;;;11.60;92.40;;;;;;5063579;28;20025;-70
2021/05/13 04:43:11;;;;;;;35.97;19.45;;;11.60;92.30;;;;;;5064133;28;20045;-70
2021/05/13 04:45:37;;;;;;;38.20;20.30;;;11.60;92.30;;;;;;5061583;28;20097;-69
2021/05/13 04:48:06;;;;;;;35.53;19.65;;;11.60;92.40;;;;;;5069378;28;20432;-70
2021/05/13 04:50:33;;;;;;;34.38;18.98;;;11.60;92.50;;;;;;5063031;28;20033;-70
2021/05/13 04:53:00;;;;;;;35.78;19.80;;;11.60;92.50;;;;;;5058741;28;20461;-71
2021/05/13 04:55:26;;;;;;;38.67;21.25;;;11.60;92.40;;;;;;5067177;28;20051;-70
2021/05/13 04:57:55;;;;;;;35.78;17.85;;;11.60;92.50;;;;;;5050801;28;20020;-70
2021/05/13 05:00:21;;;;;;;31.38;17.38;;;11.60;92.60;;;;;;5045167;28;20033;-70
2021/05/13 05:02:46;;;;;;;34.80;17.55;;;11.60;92.50;;;;;;5060400;28;20486;-70
2021/05/13 05:05:12;;;;;;;34.85;18.17;;;11.60;92.50;;;;;;5063836;28;20041;-70
2021/05/13 05:07:38;;;;;;;30.92;16.60;;;11.60;92.60;;;;;;5061560;28;20067;-70
2021/05/13 05:10:04;;;;;;;30.00;15.52;;;11.60;92.60;;;;;;5061024;28;20028;-70
2021/05/13 05:12:30;;;;;;;28.60;16.60;;;11.60;92.60;;;;;;5061680;28;20048;-70
2021/05/13 05:14:57;;;;;;;25.92;15.02;;;11.60;92.60;;;;;;5060962;28;20036;-70
2021/05/13 05:17:23;;;;;;;26.38;15.80;;;11.70;92.60;;;;;;5061781;28;20100;-70
2021/05/13 05:19:49;;;;;;;21.98;12.60;;;11.60;92.50;;;;;;5060438;28;20108;-70
2021/05/13 05:22:15;;;;;;;21.77;11.98;;;11.70;92.50;;;;;;5057688;28;20032;-70
2021/05/13 05:24:40;;;;;;;24.35;14.20;;;11.70;92.50;;;;;;5064139;28;20037;-70
2021/05/13 05:27:06;;;;;;;27.70;15.02;;;11.70;92.40;;;;;;5060141;28;20035;-70
2021/05/13 05:29:32;;;;;;;25.88;15.27;;;11.70;92.40;;;;;;5061014;28;20025;-71
2021/05/13 05:31:58;;;;;;;25.10;14.70;;;11.70;92.30;;;;;;5058258;28;20479;-71
2021/05/13 05:34:23;;;;;;;30.17;15.38;;;11.70;92.30;;;;;;5065411;28;20035;-70
2021/05/13 05:36:49;;;;;;;21.30;12.73;;;11.80;92.30;;;;;;5060852;28;20039;-70
2021/05/13 05:39:15;;;;;;;25.27;15.50;;;11.80;92.40;;;;;;5064863;28;20031;-69
2021/05/13 05:41:40;;;;;;;23.13;13.32;;;11.80;92.20;;;;;;5060833;28;20344;-70
2021/05/13 05:44:07;;;;;;;23.30;14.75;;;11.80;92.30;;;;;;5056465;28;20396;-70
2021/05/13 05:46:32;;;;;;;22.20;13.50;;;11.80;92.30;;;;;;5059403;28;20075;-70
2021/05/13 05:48:58;;;;;;;26.48;15.10;;;11.80;92.30;;;;;;5061655;28;20122;-70
2021/05/13 05:51:24;;;;;;;22.65;12.13;;;11.80;92.10;;;;;;5059513;28;20025;-70
2021/05/13 05:53:50;;;;;;;24.42;14.07;;;11.80;92.20;;;;;;5064538;28;20044;-70
2021/05/13 05:56:16;;;;;;;18.13;11.90;;;11.80;92.20;;;;;;5058546;28;20024;-70
2021/05/13 05:58:42;;;;;;;23.08;13.80;;;11.80;92.10;;;;;;5062661;28;20051;-69
2021/05/13 06:01:07;;;;;;;24.10;13.90;;;11.80;92.00;;;;;;5057480;28;20487;-70
2021/05/13 06:03:33;;;;;;;19.25;11.32;;;12.00;92.20;;;;;;5063964;28;20029;-70
2021/05/13 06:05:59;;;;;;;24.73;14.07;;;12.10;91.70;;;;;;5062197;28;20025;-70
2021/05/13 06:08:30;;;;;;;21.80;13.27;;;12.10;91.40;;;;;;5064732;28;20494;-70
2021/05/13 06:11:05;;;;;;;27.95;13.95;;;12.00;91.50;;;;;;5063243;28;20464;-71
2021/05/13 06:13:31;;;;;;;24.52;13.60;;;12.00;91.60;;;;;;5047278;28;20056;-71
2021/05/13 06:15:57;;;;;;;24.02;13.77;;;11.90;91.60;;;;;;5057442;28;20028;-71
2021/05/13 06:18:22;;;;;;;23.15;13.57;;;11.90;91.70;;;;;;5065121;28;20021;-71
2021/05/13 06:20:48;;;;;;;24.08;12.63;;;11.90;91.70;;;;;;5063067;28;20051;-71
2021/05/13 06:23:15;;;;;;;24.13;13.77;;;11.90;91.70;;;;;;5059975;28;20102;-70
2021/05/13 06:25:40;;;;;;;23.52;12.05;;;11.90;91.60;;;;;;5057818;28;20120;-71
2021/05/13 06:28:07;;;;;;;24.50;13.43;;;11.90;91.70;;;;;;5065531;28;20110;-71
2021/05/13 06:30:33;;;;;;;23.83;13.63;;;11.90;91.70;;;;;;5058867;28;20048;-70
2021/05/13 06:32:59;;;;;;;22.80;14.13;;;11.90;91.70;;;;;;5062815;28;20382;-71
2021/05/13 06:35:24;;;;;;;31.00;14.90;;;11.90;91.70;;;;;;5062392;28;20029;-71
2021/05/13 06:37:50;;;;;;;28.80;14.85;;;11.90;91.60;;;;;;5056769;28;20399;-71
2021/05/13 06:40:17;;;;;;;27.08;14.02;;;11.90;91.70;;;;;;5059847;28;20071;-70
2021/05/13 06:42:43;;;;;;;24.45;13.00;;;11.90;91.60;;;;;;5059989;28;20021;-71
2021/05/13 06:45:10;;;;;;;23.08;12.82;;;11.90;91.80;;;;;;5057856;28;20082;-71
2021/05/13 06:47:38;;;;;;;24.25;12.40;;;11.90;91.80;;;;;;5058683;28;20506;-70
2021/05/13 06:50:05;;;;;;;26.38;13.68;;;11.90;91.70;;;;;;5061167;28;20497;-71
2021/05/13 06:52:31;;;;;;;24.90;12.75;;;11.90;91.70;;;;;;5063127;28;20044;-71
2021/05/13 06:54:57;;;;;;;23.63;12.38;;;11.90;91.60;;;;;;5057309;28;20392;-70
2021/05/13 06:57:23;;;;;;;19.35;11.35;;;11.90;91.70;;;;;;5062175;28;20024;-70
2021/05/13 06:59:48;;;;;;;23.05;12.45;;;11.90;91.70;;;;;;5057055;28;20510;-69
2021/05/13 07:02:14;;;;;;;26.52;14.50;;;11.90;91.70;;;;;;5054163;28;20094;-70
2021/05/13 07:04:40;;;;;;;26.45;13.38;;;12.00;91.60;;;;;;5058030;28;20032;-70
2021/05/13 07:07:06;;;;;;;25.58;13.57;;;12.00;91.60;;;;;;5043985;28;20052;-70
2021/05/13 07:09:32;;;;;;;29.15;14.15;;;12.00;91.50;;;;;;5057712;28;20095;-70
2021/05/13 07:11:58;;;;;;;22.58;11.60;;;12.00;91.50;;;;;;5062995;28;20036;-70
2021/05/13 07:14:24;;;;;;;21.85;12.25;;;12.00;91.50;;;;;;5059912;28;20483;-70
2021/05/13 07:16:50;;;;;;;28.25;13.85;;;12.00;91.60;;;;;;5060290;28;20080;-70
2021/05/13 07:19:17;;;;;;;26.45;13.25;;;12.00;91.50;;;;;;5060217;28;20221;-69
2021/05/13 07:21:43;;;;;;;31.92;15.20;;;12.00;91.50;;;;;;5060541;28;20521;-70
2021/05/13 07:24:09;;;;;;;27.55;14.60;;;12.00;91.50;;;;;;5057077;28;20037;-69
2021/05/13 07:26:35;;;;;;;25.92;13.65;;;12.00;91.60;;;;;;5062734;28;20032;-69
2021/05/13 07:29:01;;;;;;;23.35;12.35;;;12.00;91.60;;;;;;5045329;28;20041;-69
2021/05/13 07:31:27;;;;;;;23.42;12.90;;;12.00;91.60;;;;;;5050141;28;20094;-70
2021/05/13 07:33:53;;;;;;;24.40;13.07;;;12.00;91.60;;;;;;5048075;28;20483;-69
2021/05/13 07:36:19;;;;;;;19.23;10.80;;;12.00;91.50;;;;;;5058194;28;20360;-70
2021/05/13 07:38:46;;;;;;;20.70;11.52;;;12.10;91.50;;;;;;5060181;28;20211;-70
2021/05/13 07:41:14;;;;;;;18.50;9.85;;;12.10;91.50;;;;;;5061024;28;20040;-70
2021/05/13 07:43:42;;;;;;;19.98;10.93;;;12.10;91.50;;;;;;5058976;28;20054;-70
2021/05/13 07:46:08;;;;;;;19.35;10.93;;;12.10;91.40;;;;;;5058037;28;20120;-69
2021/05/13 07:48:33;;;;;;;17.42;9.82;;;12.10;91.50;;;;;;5056274;28;20398;-70
2021/05/13 07:50:59;;;;;;;17.50;10.35;;;12.10;91.50;;;;;;5062343;28;20429;-70
2021/05/13 07:53:26;;;;;;;16.40;9.63;;;12.10;91.40;;;;;;5058004;28;20025;-70
2021/05/13 07:55:53;;;;;;;17.35;9.80;;;12.20;91.80;;;;;;5058127;28;20044;-70
2021/05/13 07:58:19;;;;;;;14.43;8.40;;;12.30;91.50;;;;;;5058334;28;20605;-70
2021/05/13 08:00:45;;;;;;;14.13;6.70;;;12.40;91.10;;;;;;5058395;28;20094;-70
2021/05/13 08:03:11;;;;;;;16.25;9.30;;;12.40;91.10;;;;;;5061610;28;20037;-70
2021/05/13 08:05:36;;;;;;;17.10;10.27;;;12.30;91.10;;;;;;5057222;28;20169;-70
2021/05/13 08:08:03;;;;;;;17.92;9.73;;;12.30;91.00;;;;;;5060437;28;20058;-70
2021/05/13 08:10:29;;;;;;;15.35;9.30;;;12.30;91.00;;;;;;5060821;28;20051;-70
2021/05/13 08:12:55;;;;;;;18.40;10.63;;;12.30;91.00;;;;;;5055196;28;20492;-70
2021/05/13 08:15:21;;;;;;;13.73;9.65;;;12.30;91.00;;;;;;5058831;28;20394;-69
2021/05/13 08:17:47;;;;;;;18.65;9.65;;;12.30;91.10;;;;;;5049483;28;20036;-69
2021/05/13 08:20:14;;;;;;;13.50;8.57;;;12.30;91.20;;;;;;5059615;28;20444;-69
2021/05/13 08:22:41;;;;;;;13.68;8.48;;;12.30;91.20;;;;;;5041215;28;20032;-69
2021/05/13 08:25:08;;;;;;;16.35;9.50;;;12.30;91.20;;;;;;5056142;28;20056;-70
2021/05/13 08:27:34;;;;;;;14.25;8.85;;;12.30;91.20;;;;;;5054214;28;20020;-70
2021/05/13 08:30:00;;;;;;;20.52;11.50;;;12.30;91.30;;;;;;5054231;28;20082;-70
2021/05/13 08:32:26;;;;;;;18.15;9.95;;;12.30;91.20;;;;;;5042008;28;20043;-70
2021/05/13 08:34:55;;;;;;;18.50;10.98;;;12.30;91.20;;;;;;5058092;28;20359;-70
2021/05/13 08:37:22;;;;;;;22.88;11.57;;;12.20;91.30;;;;;;5061947;28;20025;-70
2021/05/13 08:39:48;;;;;;;18.42;10.02;;;12.30;91.30;;;;;;5060868;28;20111;-70
2021/05/13 08:42:14;;;;;;;16.25;9.45;;;12.20;91.40;;;;;;5062027;28;20063;-70
2021/05/13 08:44:44;;;;;;;16.83;9.73;;;12.20;91.40;;;;;;5060624;28;20029;-70
2021/05/13 08:47:11;;;;;;;14.63;8.85;;;12.20;91.50;;;;;;5064789;28;20064;-70
2021/05/13 08:49:38;;;;;;;15.20;7.95;;;12.30;91.50;;;;;;5061259;28;20204;-70
2021/05/13 08:52:19;;;;;;;15.40;9.15;;;12.30;91.50;;;;;;5061176;28;20368;-71
2021/05/13 08:54:56;;;;;;;14.00;9.27;;;12.30;91.60;;;;;;5062664;28;20036;-70
2021/05/13 08:57:23;;;;;;;11.95;6.40;;;12.40;91.70;;;;;;5057828;28;20029;-69
2021/05/13 08:59:50;;;;;;;9.13;6.18;;;12.40;91.70;;;;;;5062259;28;20029;-70
2021/05/13 09:02:17;;;;;;;16.90;7.95;;;12.50;91.70;;;;;;5063929;28;20032;-70
2021/05/13 09:04:52;;;;;;;14.32;7.00;;;12.50;91.60;;;;;;5061495;28;20469;-70
2021/05/13 09:07:24;;;;;;;13.25;6.90;;;12.50;91.70;;;;;;5060364;28;20037;-70
2021/05/13 09:09:57;;;;;;;13.65;8.18;;;12.60;91.70;;;;;;5060467;28;20410;-70
2021/05/13 09:12:32;;;;;;;11.38;7.70;;;12.60;91.40;;;;;;5064509;28;20482;-70
2021/05/13 09:15:02;;;;;;;11.35;6.60;;;12.60;91.50;;;;;;5038696;28;20594;-70
2021/05/13 09:17:29;;;;;;;13.20;6.72;;;12.60;91.60;;;;;;5057964;28;20450;-70
2021/05/13 09:19:55;;;;;;;13.05;7.18;;;12.70;91.70;;;;;;5058086;28;20078;-71
2021/05/13 09:22:24;;;;;;;13.38;7.03;;;12.70;91.80;;;;;;5062351;28;20103;-70
2021/05/13 09:24:57;;;;;;;13.15;7.20;;;12.80;91.60;;;;;;5067847;28;20167;-70
2021/05/13 09:27:43;;;;;;;11.43;6.78;;;12.80;91.50;;;;;;5065957;28;20033;-70
2021/05/13 09:30:18;;;;;;;9.80;6.10;;;12.90;91.40;;;;;;5065137;28;20091;-71
2021/05/13 09:32:46;;;;;;;8.27;5.70;;;12.90;91.50;;;;;;5057783;28;20074;-70
2021/05/13 09:35:19;;;;;;;10.55;6.57;;;12.80;91.50;;;;;;5059228;28;20029;-71
2021/05/13 09:37:58;;;;;;;11.20;7.10;;;12.80;91.50;;;;;;5060545;28;20495;-70
2021/05/13 09:40:52;;;;;;;11.13;6.10;;;12.80;91.50;;;;;;5064241;28;20055;-69
2021/05/13 09:43:19;;;;;;;10.88;6.47;;;12.80;91.60;;;;;;5059399;28;20478;-69
2021/05/13 09:45:46;;;;;;;11.15;6.32;;;12.80;91.70;;;;;;5062561;28;20171;-70
2021/05/13 09:48:34;;;;;;;9.70;6.05;;;12.90;91.80;;;;;;5050505;28;20033;-71
2021/05/13 09:51:34;;;;;;;11.13;6.47;;;12.90;91.70;;;;;;5063756;28;20029;-71
2021/05/13 09:54:17;;;;;;;8.52;5.47;;;13.00;91.70;;;;;;5071234;28;20040;-71
2021/05/13 09:56:54;;;;;;;10.57;6.00;;;13.00;92.00;;;;;;5060257;28;20041;-70
2021/05/13 09:59:46;;;;;;;12.07;6.55;;;13.10;91.80;;;;;;5061002;28;20027;-70
2021/05/13 10:02:12;;;;;;;11.13;6.18;;;13.10;91.70;;;;;;5052227;28;20055;-70
2021/05/13 10:04:37;;;;;;;10.00;5.30;;;13.20;91.50;;;;;;5060944;28;20123;-70
2021/05/13 10:07:03;;;;;;;13.68;8.05;;;13.10;91.50;;;;;;5057590;28;20453;-70
2021/05/13 10:09:31;;;;;;;7.57;5.68;;;13.10;91.30;;;;;;5062482;28;20036;-70
2021/05/13 10:11:58;;;;;;;9.43;5.75;;;13.00;91.50;;;;;;5064574;28;20493;-70
2021/05/13 10:14:26;;;;;;;9.95;6.68;;;13.10;91.60;;;;;;5061016;28;20089;-70
2021/05/13 10:16:57;;;;;;;9.90;6.53;;;13.00;91.60;;;;;;5060387;28;20028;-70
2021/05/13 10:19:37;;;;;;;11.10;6.45;;;13.00;91.50;;;;;;5061966;28;20024;-70
2021/05/13 10:22:05;;;;;;;14.13;7.28;;;13.00;91.50;;;;;;5058405;28;20025;-70
2021/05/13 10:24:31;;;;;;;9.23;6.50;;;12.90;91.50;;;;;;5063824;28;20060;-70
2021/05/13 10:26:57;;;;;;;9.70;6.07;;;12.90;91.60;;;;;;5059978;28;20059;-70
2021/05/13 10:29:22;;;;;;;8.65;5.32;;;13.00;91.70;;;;;;5060460;28;20107;-70
2021/05/13 10:32:00;;;;;;;9.82;5.53;;;13.00;91.80;;;;;;5045132;28;20032;-70
2021/05/13 10:34:58;;;;;;;9.77;6.30;;;13.10;91.80;;;;;;5065098;28;20445;-70
2021/05/13 10:37:35;;;;;;;11.25;6.80;;;13.10;91.50;;;;;;5048861;28;20037;-70
2021/05/13 10:42:43;;;;;;;9.93;6.20;;;13.00;91.40;;;;;;5057142;28;20021;-69
2021/05/13 10:45:30;;;;;;;10.32;6.00;;;13.00;91.60;;;;;;5059816;28;20044;-70
2021/05/13 10:48:22;;;;;;;11.80;5.15;;;13.10;91.60;;;;;;5066886;28;20029;-70
2021/05/13 10:50:47;;;;;;;9.68;4.93;;;13.10;91.50;;;;;;5060063;28;20021;-69
2021/05/13 10:53:45;;;;;;;9.55;5.30;;;13.20;91.50;;;;;;5059909;28;20487;-70
2021/05/13 10:56:28;;;;;;;10.45;6.47;;;13.20;91.40;;;;;;5058889;28;20028;-70
2021/05/13 10:59:00;;;;;;;10.02;5.28;;;13.20;91.20;;;;;;5065925;28;20028;-70
2021/05/13 11:01:37;;;;;;;10.20;6.32;;;13.20;91.30;;;;;;5057792;28;20302;-70
2021/05/13 11:04:21;;;;;;;9.35;5.90;;;13.20;91.30;;;;;;5056674;28;20040;-70
2021/05/13 11:06:55;;;;;;;9.77;5.20;;;13.20;91.20;;;;;;5058601;28;20040;-70
2021/05/13 11:12:38;;;;;;;8.70;5.20;;;13.20;91.50;;;;;;5055435;28;20040;-72
2021/05/13 11:15:09;;;;;;;13.63;6.25;;;13.30;91.50;;;;;;5043947;28;20147;-71
2021/05/13 11:20:38;;;;;;;8.68;5.20;;;13.30;91.50;;;;;;5056304;28;20283;-71
2021/05/13 11:23:08;;;;;;;7.53;4.55;;;13.40;91.60;;;;;;5057020;28;20025;-71
2021/05/13 11:26:00;;;;;;;8.20;5.55;;;13.40;91.40;;;;;;5056528;28;20035;-71
2021/05/13 11:28:42;;;;;;;9.10;5.88;;;13.40;91.30;;;;;;5052110;28;20531;-72
2021/05/13 11:31:08;;;;;;;8.40;5.07;;;13.40;91.20;;;;;;5055316;28;20032;-71
2021/05/13 11:33:50;;;;;;;9.27;5.45;;;13.40;91.20;;;;;;5046906;28;20402;-71
2021/05/13 11:36:18;;;;;;;6.32;4.28;;;13.40;91.00;;;;;;5055118;28;20024;-71
2021/05/13 11:38:49;;;;;;;7.55;5.10;;;13.40;91.30;;;;;;5056478;28;20556;-71
2021/05/13 11:41:16;;;;;;;8.35;5.65;;;13.40;91.20;;;;;;5058732;28;20024;-69
2021/05/13 11:43:42;;;;;;;7.22;4.32;;;13.40;91.10;;;;;;5057084;28;20083;-71
2021/05/13 11:46:10;;;;;;;6.35;4.00;;;13.40;91.30;;;;;;5060932;28;20028;-70
2021/05/13 11:48:44;;;;;;;7.47;4.22;;;13.40;91.20;;;;;;5059558;28;20033;-70
2021/05/13 11:51:17;;;;;;;7.90;5.28;;;13.40;91.20;;;;;;5060292;28;20033;-72
2021/05/13 11:53:46;;;;;;;8.25;4.88;;;13.30;91.00;;;;;;5058175;28;20032;-71
2021/05/13 11:56:13;;;;;;;9.00;5.18;;;13.30;91.10;;;;;;5059434;28;20059;-70
2021/05/13 11:58:48;;;;;;;6.68;4.80;;;13.30;91.10;;;;;;5056973;28;20029;-70
2021/05/13 12:01:13;;;;;;;6.70;4.45;;;13.30;91.10;;;;;;5058344;28;20083;-70
2021/05/13 12:03:40;;;;;;;5.82;4.22;;;13.30;91.30;;;;;;5059995;28;20503;-70
2021/05/13 12:06:06;;;;;;;7.63;5.25;;;13.30;91.40;;;;;;5052035;28;20039;-71
2021/05/13 12:08:34;;;;;;;7.85;5.10;;;13.40;91.30;;;;;;5061425;28;20445;-70
2021/05/13 12:11:00;;;;;;;8.07;5.95;;;13.40;91.20;;;;;;5046453;28;20089;-70
2021/05/13 12:13:27;;;;;;;10.98;5.60;;;13.40;91.10;;;;;;5060027;28;20552;-69
2021/05/13 12:16:03;;;;;;;6.75;4.72;;;13.40;90.90;;;;;;5067077;28;20055;-70
2021/05/13 12:18:30;;;;;;;9.55;6.05;;;13.40;91.10;;;;;;5063133;28;20021;-70
2021/05/13 12:20:57;;;;;;;8.75;5.53;;;13.40;91.00;;;;;;5063764;28;20020;-71
2021/05/13 12:23:23;;;;;;;9.10;5.60;;;13.40;91.10;;;;;;5060509;28;20107;-70
2021/05/13 12:25:49;;;;;;;8.77;5.28;;;13.40;91.10;;;;;;5067661;28;20033;-70
2021/05/13 12:28:17;;;;;;;10.10;6.80;;;13.40;91.20;;;;;;5064692;28;20025;-70
2021/05/13 12:30:56;;;;;;;9.98;7.00;;;13.40;91.10;;;;;;5065807;28;20032;-71
2021/05/13 12:33:24;;;;;;;9.38;6.53;;;13.40;91.10;;;;;;5063641;28;20036;-71
2021/05/13 12:35:51;;;;;;;11.98;7.50;;;13.40;91.10;;;;;;5061956;28;20124;-70
2021/05/13 12:38:21;;;;;;;11.77;7.47;;;13.40;91.10;;;;;;5060066;28;20398;-71
2021/05/13 12:40:47;;;;;;;11.18;7.53;;;13.40;91.30;;;;;;5062560;28;20033;-70
2021/05/13 12:43:18;;;;;;;11.77;8.73;;;13.40;91.40;;;;;;5072215;28;20064;-71
2021/05/13 12:45:44;;;;;;;;;;;13.40;91.50;;;;;;5062428;28;20402;-70
2021/05/13 12:48:11;;;;;;;9.68;6.85;;;13.40;91.90;;;;;;5061776;28;19912;-70
2021/05/13 12:50:38;;;;;;;9.50;7.05;;;13.40;91.60;;;;;;5025177;28;20390;-70
2021/05/13 12:53:14;;;;;;;12.18;8.30;;;13.50;91.70;;;;;;5064408;28;20082;-70
2021/05/13 12:55:44;;;;;;;13.60;8.07;;;13.50;91.50;;;;;;5060895;28;20033;-70